createdAt,value
2018-12-21T00:00:59.474Z,3.07
2018-12-21T00:03:26.658Z,3.90
2018-12-21T00:05:53.718Z,3.33
2018-12-21T00:08:20.783Z,3.40
2018-12-21T00:10:48.064Z,3.10
2018-12-21T00:13:15.252Z,3.20
2018-12-21T00:15:42.322Z,3.80
2018-12-21T00:18:09.617Z,3.53
2018-12-21T00:20:36.835Z,3.23
2018-12-21T00:23:03.918Z,3.57
2018-12-21T00:25:31.011Z,3.33
2018-12-21T00:27:58.114Z,3.53
2018-12-21T00:30:26.345Z,3.73
2018-12-21T00:32:59.186Z,3.30
2018-12-21T00:35:32.019Z,3.03
2018-12-21T00:38:05.732Z,3.63
2018-12-21T00:40:38.798Z,3.83
2018-12-21T00:43:10.483Z,3.50
2018-12-21T00:45:41.731Z,3.27
2018-12-21T00:48:08.892Z,3.33
2018-12-21T00:50:36.062Z,3.20
2018-12-21T00:53:03.351Z,3.73
2018-12-21T00:55:30.539Z,3.40
2018-12-21T00:57:57.618Z,3.47
2018-12-21T01:00:25.743Z,3.20
2018-12-21T01:02:52.936Z,3.27
2018-12-21T01:05:20.125Z,3.47
2018-12-21T01:07:47.415Z,2.90
2018-12-21T01:10:14.697Z,3.43
2018-12-21T01:12:41.891Z,3.47
2018-12-21T01:15:09.186Z,3.17
2018-12-21T01:17:36.362Z,3.40
2018-12-21T01:20:04.384Z,3.67
2018-12-21T01:22:31.602Z,3.40
2018-12-21T01:24:58.787Z,3.40
2018-12-21T01:27:25.986Z,3.43
2018-12-21T01:29:53.083Z,3.20
2018-12-21T01:32:20.351Z,2.83
2018-12-21T01:34:47.526Z,3.10
2018-12-21T01:37:14.610Z,3.00
2018-12-21T01:39:41.796Z,3.10
2018-12-21T01:42:08.974Z,3.30
2018-12-21T01:44:36.150Z,2.97
2018-12-21T01:47:03.323Z,2.90
2018-12-21T01:49:30.418Z,3.00
2018-12-21T01:51:57.598Z,2.83
2018-12-21T01:54:24.884Z,2.53
2018-12-21T01:56:52.071Z,3.37
2018-12-21T01:59:19.124Z,2.40
2018-12-21T02:01:46.406Z,2.50
2018-12-21T02:04:13.587Z,2.60
2018-12-21T02:06:40.687Z,2.60
2018-12-21T02:09:07.887Z,2.70
2018-12-21T02:11:35.120Z,2.60
2018-12-21T02:14:02.293Z,3.20
2018-12-21T02:16:29.346Z,2.60
2018-12-21T02:18:56.606Z,2.50
2018-12-21T02:21:23.795Z,2.27
2018-12-21T02:23:50.970Z,2.73
2018-12-21T02:26:18.260Z,2.70
2018-12-21T02:28:45.458Z,2.60
2018-12-21T02:31:12.624Z,2.50
2018-12-21T02:33:39.674Z,2.47
2018-12-21T02:36:06.843Z,2.80
2018-12-21T02:38:33.901Z,3.50
2018-12-21T02:41:00.967Z,2.77
2018-12-21T02:43:28.378Z,2.90
2018-12-21T02:45:55.538Z,2.60
2018-12-21T02:48:22.598Z,2.47
2018-12-21T02:50:49.664Z,2.40
2018-12-21T02:53:16.737Z,2.70
2018-12-21T02:55:43.823Z,2.50
2018-12-21T02:58:11.101Z,2.60
2018-12-21T03:00:38.394Z,2.20
2018-12-21T03:03:05.463Z,2.47
2018-12-21T03:05:32.634Z,3.00
2018-12-21T03:07:59.698Z,2.50
2018-12-21T03:10:26.795Z,2.20
2018-12-21T03:12:53.862Z,2.20
2018-12-21T03:15:21.043Z,2.43
2018-12-21T03:17:48.121Z,2.53
2018-12-21T03:20:15.185Z,2.27
2018-12-21T03:22:42.261Z,2.40
2018-12-21T03:25:09.330Z,2.43
2018-12-21T03:27:36.400Z,2.10
2018-12-21T03:30:03.939Z,2.60
2018-12-21T03:32:31.100Z,2.40
2018-12-21T03:34:58.381Z,2.33
2018-12-21T03:37:25.442Z,2.23
2018-12-21T03:39:52.668Z,2.20
2018-12-21T03:42:19.970Z,2.23
2018-12-21T03:44:47.137Z,2.10
2018-12-21T03:47:14.199Z,2.13
2018-12-21T03:49:41.395Z,2.00
2018-12-21T03:52:08.569Z,2.23
2018-12-21T03:54:35.650Z,2.17
2018-12-21T03:57:02.927Z,2.03
2018-12-21T03:59:30.003Z,2.20
2018-12-21T04:01:57.071Z,2.60
2018-12-21T04:04:24.247Z,2.20
2018-12-21T04:06:51.314Z,1.90
2018-12-21T04:09:18.387Z,2.10
2018-12-21T04:11:45.495Z,1.80
2018-12-21T04:14:12.553Z,1.90
2018-12-21T04:16:39.711Z,2.00
2018-12-21T04:19:06.795Z,2.10
2018-12-21T04:21:33.862Z,1.80
2018-12-21T04:24:00.924Z,2.07
2018-12-21T04:26:28.106Z,1.93
2018-12-21T04:28:55.179Z,2.00
2018-12-21T04:31:22.266Z,2.20
2018-12-21T04:33:49.321Z,2.43
2018-12-21T04:36:16.983Z,2.23
2018-12-21T04:38:44.055Z,1.83
2018-12-21T04:41:11.150Z,1.87
2018-12-21T04:43:38.258Z,1.77
2018-12-21T04:46:05.317Z,2.37
2018-12-21T04:48:32.398Z,1.93
2018-12-21T04:50:59.458Z,1.97
2018-12-21T04:53:26.626Z,1.90
2018-12-21T04:55:53.726Z,1.80
2018-12-21T04:58:20.907Z,1.80
2018-12-21T05:00:48.099Z,1.77
2018-12-21T05:03:15.295Z,2.00
2018-12-21T05:05:42.374Z,1.55
2018-12-21T05:08:09.534Z,1.80
2018-12-21T05:10:36.827Z,1.80
2018-12-21T05:13:04.006Z,1.60
2018-12-21T05:15:31.066Z,1.70
2018-12-21T05:17:58.133Z,1.63
2018-12-21T05:20:25.470Z,1.80
2018-12-21T05:22:52.708Z,1.70
2018-12-21T05:25:19.830Z,1.60
2018-12-21T05:27:46.907Z,1.60
2018-12-21T05:30:18.999Z,1.53
2018-12-21T05:32:46.193Z,1.60
2018-12-21T05:35:13.395Z,1.40
2018-12-21T05:37:40.546Z,1.30
2018-12-21T05:40:07.854Z,1.30
2018-12-21T05:42:34.939Z,1.20
2018-12-21T05:45:02.219Z,1.40
2018-12-21T05:47:29.274Z,1.20
2018-12-21T05:49:56.466Z,1.30
2018-12-21T05:52:23.772Z,1.40
2018-12-21T05:54:50.860Z,1.20
2018-12-21T05:57:17.922Z,1.23
2018-12-21T05:59:45.006Z,1.10
2018-12-21T06:02:12.076Z,1.10
2018-12-21T06:04:39.148Z,0.97
2018-12-21T06:07:06.220Z,0.87
2018-12-21T06:09:33.327Z,1.20
2018-12-21T06:12:00.395Z,1.10
2018-12-21T06:14:27.590Z,1.00
2018-12-21T06:16:54.774Z,1.00
2018-12-21T06:19:21.843Z,0.90
2018-12-21T06:21:48.935Z,1.20
2018-12-21T06:24:16.342Z,1.00
2018-12-21T06:26:43.640Z,1.10
2018-12-21T06:29:10.706Z,1.03
2018-12-21T06:31:37.771Z,1.10
2018-12-21T06:34:04.891Z,1.10
2018-12-21T06:36:31.947Z,1.33
2018-12-21T06:38:59.187Z,1.23
2018-12-21T06:41:26.257Z,1.13
2018-12-21T06:43:53.450Z,1.40
2018-12-21T06:46:20.521Z,1.20
2018-12-21T06:48:47.578Z,1.20
2018-12-21T06:51:14.867Z,1.30
2018-12-21T06:53:41.939Z,1.00
2018-12-21T06:56:09.133Z,0.90
2018-12-21T06:58:36.238Z,0.80
2018-12-21T07:01:03.544Z,0.97
2018-12-21T07:03:30.650Z,0.90
2018-12-21T07:05:57.734Z,0.97
2018-12-21T07:08:24.792Z,0.93
2018-12-21T07:10:52.142Z,1.00
2018-12-21T07:13:19.502Z,1.20
2018-12-21T07:15:46.691Z,0.90
2018-12-21T07:18:13.903Z,1.10
2018-12-21T07:20:40.978Z,1.07
2018-12-21T07:23:08.155Z,1.10
2018-12-21T07:25:35.251Z,0.93
2018-12-21T07:28:02.414Z,1.10
2018-12-21T07:30:29.759Z,1.07
2018-12-21T07:32:56.815Z,1.20
2018-12-21T07:35:23.908Z,1.27
2018-12-21T07:37:50.966Z,0.90
2018-12-21T07:40:18.026Z,1.10
2018-12-21T07:42:45.200Z,1.00
2018-12-21T07:45:12.513Z,1.00
2018-12-21T07:47:39.583Z,1.00
2018-12-21T07:50:08.267Z,1.00
2018-12-21T07:52:35.573Z,1.07
2018-12-21T07:55:03.599Z,0.70
2018-12-21T07:57:30.654Z,0.80
2018-12-21T07:59:57.722Z,0.70
2018-12-21T08:02:24.804Z,0.90
2018-12-21T08:04:51.871Z,0.80
2018-12-21T08:07:19.050Z,0.80
2018-12-21T08:09:46.122Z,0.80
2018-12-21T08:12:13.198Z,0.90
2018-12-21T08:14:40.360Z,1.00
2018-12-21T08:17:07.440Z,1.00
2018-12-21T08:19:34.609Z,0.80
2018-12-21T08:22:01.780Z,0.90
2018-12-21T08:24:28.959Z,0.80
2018-12-21T08:26:56.151Z,0.83
2018-12-21T08:29:23.239Z,1.10
2018-12-21T08:31:50.419Z,0.90
2018-12-21T08:34:17.591Z,0.90
2018-12-21T08:36:44.862Z,0.70
2018-12-21T08:39:11.958Z,0.90
2018-12-21T08:41:39.291Z,1.10
2018-12-21T08:44:06.475Z,1.00
2018-12-21T08:46:33.650Z,1.03
2018-12-21T08:49:00.849Z,0.80
2018-12-21T08:51:27.927Z,0.80
2018-12-21T08:53:54.999Z,0.77
2018-12-21T08:56:22.166Z,0.90
2018-12-21T08:58:49.231Z,1.00
2018-12-21T09:01:16.408Z,0.73
2018-12-21T09:03:43.483Z,1.00
2018-12-21T09:06:18.275Z,0.90
2018-12-21T09:08:39.702Z,1.00
2018-12-21T09:11:06.922Z,1.00
2018-12-21T09:13:33.991Z,1.03
2018-12-21T09:16:01.222Z,1.17
2018-12-21T09:18:28.448Z,1.50
2018-12-21T09:20:55.623Z,1.30
2018-12-21T09:23:22.707Z,1.20
2018-12-21T09:25:49.904Z,1.30
2018-12-21T09:28:17.070Z,1.90
2018-12-21T09:30:44.414Z,2.17
2018-12-21T09:33:11.474Z,2.00
2018-12-21T09:35:38.659Z,2.43
2018-12-21T09:38:05.843Z,2.07
2018-12-21T09:40:33.119Z,1.73
2018-12-21T09:43:00.186Z,1.90
2018-12-21T09:45:27.367Z,1.50
2018-12-21T09:47:54.574Z,1.73
2018-12-21T09:50:21.634Z,1.67
2018-12-21T09:55:30.939Z,1.70
2018-12-21T09:57:58.010Z,1.60
2018-12-21T10:00:25.306Z,1.70
2018-12-21T10:02:52.384Z,1.70
2018-12-21T10:05:19.459Z,1.43
2018-12-21T10:07:46.510Z,1.20
2018-12-21T10:10:13.834Z,1.40
2018-12-21T10:12:41.007Z,1.60
2018-12-21T10:15:09.262Z,1.50
2018-12-21T10:17:36.439Z,1.40
2018-12-21T10:20:04.970Z,1.10
2018-12-21T10:22:32.051Z,1.40
2018-12-21T10:24:59.237Z,1.40
2018-12-21T10:27:26.535Z,1.60
2018-12-21T10:29:53.823Z,1.40
2018-12-21T10:32:20.895Z,1.40
2018-12-21T10:34:47.946Z,1.40
2018-12-21T10:37:16.787Z,1.40
2018-12-21T10:39:44.195Z,1.50
2018-12-21T10:42:11.375Z,1.30
2018-12-21T10:44:38.671Z,1.40
2018-12-21T10:47:06.079Z,1.30
2018-12-21T10:49:33.303Z,1.57
2018-12-21T10:52:00.393Z,1.40
2018-12-21T10:54:27.492Z,1.20
2018-12-21T10:56:54.542Z,1.10
2018-12-21T10:59:21.943Z,1.37
2018-12-21T11:01:49.021Z,1.40
2018-12-21T11:04:16.082Z,1.20
2018-12-21T11:06:43.160Z,1.30
2018-12-21T11:09:10.270Z,1.20
2018-12-21T11:11:37.630Z,1.30
2018-12-21T11:14:04.801Z,1.23
2018-12-21T11:16:31.883Z,1.50
2018-12-21T11:18:58.946Z,1.93
2018-12-21T11:21:26.024Z,1.50
2018-12-21T11:23:53.310Z,1.40
2018-12-21T11:26:20.488Z,1.30
2018-12-21T11:28:47.555Z,1.23
2018-12-21T11:31:14.614Z,1.30
2018-12-21T11:33:41.675Z,1.43
2018-12-21T11:36:08.853Z,1.47
2018-12-21T11:38:35.932Z,1.30
2018-12-21T11:41:03.215Z,1.60
2018-12-21T11:43:30.398Z,1.70
2018-12-21T11:45:57.566Z,1.70
2018-12-21T11:48:24.638Z,1.70
2018-12-21T11:50:51.698Z,2.23
2018-12-21T11:53:18.874Z,2.00
2018-12-21T11:55:46.034Z,2.10
2018-12-21T11:58:13.211Z,2.47
2018-12-21T12:00:40.278Z,2.27
2018-12-21T12:03:07.356Z,2.00
2018-12-21T12:05:34.416Z,2.30
2018-12-21T12:08:01.597Z,2.07
2018-12-21T12:10:28.763Z,1.80
2018-12-21T12:12:55.942Z,1.80
2018-12-21T12:15:23.144Z,2.20
2018-12-21T12:17:50.231Z,1.90
2018-12-21T12:20:17.339Z,2.10
2018-12-21T12:22:44.510Z,1.67
2018-12-21T12:25:11.713Z,1.60
2018-12-21T12:27:38.915Z,1.77
2018-12-21T12:30:07.952Z,1.70
2018-12-21T12:32:35.282Z,1.80
2018-12-21T12:35:02.577Z,2.40
2018-12-21T12:37:29.655Z,1.70
2018-12-21T12:39:56.736Z,1.60
2018-12-21T12:42:24.113Z,1.37
2018-12-21T12:44:51.390Z,1.47
2018-12-21T12:47:18.453Z,1.23
2018-12-21T12:49:45.510Z,1.60
2018-12-21T12:52:12.686Z,1.40
2018-12-21T12:54:39.747Z,1.40
2018-12-21T12:57:06.973Z,1.30
2018-12-21T12:59:34.100Z,1.30
2018-12-21T13:02:01.170Z,1.53
2018-12-21T13:04:28.232Z,1.70
2018-12-21T13:06:55.411Z,1.30
2018-12-21T13:09:22.538Z,1.50
2018-12-21T13:11:49.590Z,1.73
2018-12-21T13:14:16.781Z,2.00
2018-12-21T13:16:43.857Z,1.90
2018-12-21T13:19:11.062Z,1.50
2018-12-21T13:21:38.353Z,1.93
2018-12-21T13:24:05.572Z,1.67
2018-12-21T13:26:32.838Z,2.50
2018-12-21T13:29:00.030Z,2.30
2018-12-21T13:31:27.221Z,2.57
2018-12-21T13:33:54.400Z,2.83
2018-12-21T13:36:21.478Z,2.83
2018-12-21T13:38:48.556Z,2.40
2018-12-21T13:41:15.623Z,2.83
2018-12-21T13:43:42.694Z,3.50
2018-12-21T13:46:09.859Z,3.00
2018-12-21T13:48:37.254Z,3.40
2018-12-21T13:51:04.422Z,2.60
2018-12-21T13:53:31.601Z,2.77
2018-12-21T13:55:58.654Z,3.13
2018-12-21T13:58:25.711Z,3.50
2018-12-21T14:00:52.882Z,2.97
2018-12-21T14:03:19.940Z,3.80
2018-12-21T14:05:46.986Z,3.63
2018-12-21T14:08:14.159Z,3.90
2018-12-21T14:10:41.234Z,4.13
2018-12-21T14:13:08.407Z,5.33
2018-12-21T14:15:35.595Z,4.90
2018-12-21T14:18:02.910Z,4.53
2018-12-21T14:20:29.978Z,4.77
2018-12-21T14:22:57.062Z,4.70
2018-12-21T14:25:28.821Z,5.60
2018-12-21T14:27:53.266Z,5.27
2018-12-21T14:30:21.663Z,4.77
2018-12-21T14:32:48.740Z,5.07
2018-12-21T14:35:15.827Z,5.70
2018-12-21T14:37:42.903Z,5.30
2018-12-21T14:40:10.087Z,4.87
2018-12-21T14:42:37.159Z,6.33
2018-12-21T14:45:05.001Z,5.47
2018-12-21T14:47:32.166Z,5.73
2018-12-21T14:49:59.332Z,5.23
2018-12-21T14:52:26.502Z,5.30
2018-12-21T14:54:53.582Z,5.03
2018-12-21T14:57:20.796Z,5.33
2018-12-21T14:59:47.963Z,4.90
2018-12-21T15:02:15.171Z,5.30
2018-12-21T15:04:42.231Z,5.83
2018-12-21T15:07:09.402Z,5.33
2018-12-21T15:09:36.467Z,6.07
2018-12-21T15:12:03.757Z,5.90
2018-12-21T15:14:30.955Z,5.47
2018-12-21T15:16:58.238Z,6.23
2018-12-21T15:19:25.426Z,5.40
2018-12-21T15:21:52.590Z,6.03
2018-12-21T15:24:19.642Z,6.27
2018-12-21T15:26:46.794Z,5.70
2018-12-21T15:29:13.871Z,5.97
2018-12-21T15:31:41.036Z,5.93
2018-12-21T15:34:08.106Z,5.73
2018-12-21T15:36:35.298Z,6.27
2018-12-21T15:39:04.015Z,6.13
2018-12-21T15:41:31.079Z,6.30
2018-12-21T15:43:58.259Z,6.87
2018-12-21T15:46:25.438Z,6.33
2018-12-21T15:48:52.530Z,7.10
2018-12-21T15:51:19.730Z,6.33
2018-12-21T15:53:46.799Z,5.70
2018-12-21T15:56:13.871Z,6.53
2018-12-21T15:58:40.962Z,5.43
2018-12-21T16:01:08.030Z,5.87
2018-12-21T16:03:35.138Z,6.80
2018-12-21T16:06:02.428Z,6.57
2018-12-21T16:08:29.502Z,6.10
2018-12-21T16:10:56.653Z,5.33
2018-12-21T16:13:23.792Z,6.00
2018-12-21T16:15:50.974Z,6.03
2018-12-21T16:18:18.121Z,5.33
2018-12-21T16:20:45.414Z,6.23
2018-12-21T16:23:12.470Z,6.30
2018-12-21T16:25:39.545Z,6.53
2018-12-21T16:28:06.723Z,6.73
2018-12-21T16:30:33.909Z,6.77
2018-12-21T16:33:01.178Z,6.23
2018-12-21T16:35:28.382Z,5.37
2018-12-21T16:37:55.587Z,6.37
2018-12-21T16:40:22.995Z,5.90
2018-12-21T16:42:50.076Z,6.50
2018-12-21T16:45:17.166Z,7.20
2018-12-21T16:47:44.229Z,5.87
2018-12-21T16:50:12.644Z,5.73
2018-12-21T16:52:39.831Z,5.53
2018-12-21T16:55:07.800Z,5.43
2018-12-21T16:57:34.994Z,5.67
2018-12-21T17:00:02.562Z,7.07
2018-12-21T17:02:29.642Z,6.50
2018-12-21T17:04:56.719Z,5.50
2018-12-21T17:07:23.809Z,5.17
2018-12-21T17:09:50.890Z,6.17
2018-12-21T17:12:17.950Z,6.10
2018-12-21T17:14:45.083Z,6.30
2018-12-21T17:17:12.155Z,6.30
2018-12-21T17:19:39.266Z,5.83
2018-12-21T17:22:06.435Z,6.13
2018-12-21T17:24:33.503Z,6.20
2018-12-21T17:27:00.671Z,6.73
2018-12-21T17:29:28.884Z,7.00
2018-12-21T17:31:56.202Z,6.17
2018-12-21T17:34:23.410Z,5.90
2018-12-21T17:36:50.590Z,6.13
2018-12-21T17:39:17.802Z,7.03
2018-12-21T17:41:45.089Z,6.63
2018-12-21T17:44:13.186Z,7.03
2018-12-21T17:46:40.586Z,6.57
2018-12-21T17:49:07.763Z,6.70
2018-12-21T17:51:34.911Z,6.50
2018-12-21T17:54:01.978Z,6.73
2018-12-21T17:56:30.054Z,6.93
2018-12-21T17:58:57.739Z,7.20
2018-12-21T18:01:25.331Z,6.93
2018-12-21T18:04:02.075Z,7.20
2018-12-21T18:06:29.271Z,7.20
2018-12-21T18:08:56.345Z,7.00
2018-12-21T18:11:23.410Z,7.27
2018-12-21T18:13:50.623Z,6.07
2018-12-21T18:16:17.804Z,7.73
2018-12-21T18:18:44.878Z,7.27
2018-12-21T18:21:12.050Z,7.80
2018-12-21T18:23:39.774Z,6.90
2018-12-21T18:26:06.947Z,7.23
2018-12-21T18:28:34.023Z,7.30
2018-12-21T18:31:13.838Z,7.40
2018-12-21T18:33:42.109Z,7.93
2018-12-21T18:36:09.218Z,6.23
2018-12-21T18:38:36.527Z,7.17
2018-12-21T18:41:03.798Z,7.13
2018-12-21T18:43:30.856Z,7.00
2018-12-21T18:45:58.028Z,6.07
2018-12-21T18:48:25.210Z,7.17
2018-12-21T18:50:52.294Z,6.30
2018-12-21T18:53:19.471Z,8.07
2018-12-21T18:55:48.964Z,6.90
2018-12-21T18:58:18.941Z,6.10
2018-12-21T19:00:46.130Z,7.10
2018-12-21T19:03:13.203Z,6.83
2018-12-21T19:05:40.278Z,7.23
2018-12-21T19:08:07.453Z,6.60
2018-12-21T19:10:34.527Z,7.20
2018-12-21T19:13:01.599Z,6.20
2018-12-21T19:15:28.820Z,7.23
2018-12-21T19:17:55.898Z,6.40
2018-12-21T19:20:23.076Z,7.33
2018-12-21T19:22:50.147Z,6.90
2018-12-21T19:25:17.227Z,7.20
2018-12-21T19:27:44.422Z,6.53
2018-12-21T19:30:16.214Z,6.77
2018-12-21T19:32:43.406Z,7.27
2018-12-21T19:35:12.450Z,6.87
2018-12-21T19:37:39.563Z,6.83
2018-12-21T19:40:08.486Z,7.07
2018-12-21T19:42:35.562Z,7.07
2018-12-21T19:45:03.083Z,7.50
2018-12-21T19:47:30.191Z,8.53
2018-12-21T19:49:57.274Z,8.33
2018-12-21T19:52:24.367Z,7.43
2018-12-21T19:54:57.055Z,8.67
2018-12-21T19:57:24.990Z,7.70
2018-12-21T19:59:52.161Z,7.63
2018-12-21T20:02:19.234Z,8.33
2018-12-21T20:04:46.332Z,8.50
2018-12-21T20:07:13.416Z,7.70
2018-12-21T20:09:40.509Z,7.60
2018-12-21T20:12:07.860Z,7.73
2018-12-21T20:14:35.028Z,7.97
2018-12-21T20:17:02.110Z,7.37
2018-12-21T20:19:29.184Z,8.23
2018-12-21T20:21:56.275Z,8.20
2018-12-21T20:24:27.942Z,7.40
2018-12-21T20:26:58.994Z,9.00
2018-12-21T20:29:26.067Z,7.50
2018-12-21T20:31:53.798Z,8.27
2018-12-21T20:34:21.027Z,8.20
2018-12-21T20:36:48.218Z,7.80
2018-12-21T20:39:19.259Z,7.60
2018-12-21T20:41:46.334Z,7.77
2018-12-21T20:44:13.399Z,8.50
2018-12-21T20:46:40.495Z,8.27
2018-12-21T20:49:07.676Z,8.63
2018-12-21T20:51:34.755Z,8.10
2018-12-21T20:54:01.863Z,8.10
2018-12-21T20:56:28.974Z,8.20
2018-12-21T20:59:00.542Z,7.80
2018-12-21T21:01:27.645Z,7.70
2018-12-21T21:03:54.714Z,8.07
2018-12-21T21:06:21.792Z,7.50
2018-12-21T21:08:49.581Z,8.10
2018-12-21T21:11:24.081Z,7.77
2018-12-21T21:13:45.797Z,8.10
2018-12-21T21:16:12.992Z,7.87
2018-12-21T21:18:40.063Z,7.10
2018-12-21T21:21:07.237Z,7.53
2018-12-21T21:23:34.371Z,7.57
2018-12-21T21:26:01.678Z,8.20
2018-12-21T21:28:28.970Z,8.30
2018-12-21T21:30:56.168Z,8.67
2018-12-21T21:33:23.278Z,8.67
2018-12-21T21:35:50.366Z,8.03
2018-12-21T21:38:17.510Z,8.10
2018-12-21T21:40:44.641Z,7.80
2018-12-21T21:43:14.147Z,7.03
2018-12-21T21:45:41.243Z,8.67
2018-12-21T21:48:09.309Z,8.40
2018-12-21T21:50:36.372Z,8.93
2018-12-21T21:53:03.544Z,8.73
2018-12-21T21:55:30.607Z,9.53
2018-12-21T21:57:57.662Z,9.57
2018-12-21T22:00:24.757Z,8.27
2018-12-21T22:02:51.962Z,8.07
2018-12-21T22:05:19.264Z,7.97
2018-12-21T22:07:46.450Z,8.73
2018-12-21T22:10:13.766Z,8.23
2018-12-21T22:12:41.030Z,8.00
2018-12-21T22:15:09.570Z,8.17
2018-12-21T22:17:36.754Z,7.73
2018-12-21T22:20:06.310Z,9.17
2018-12-21T22:22:33.388Z,8.27
2018-12-21T22:25:00.477Z,7.83
2018-12-21T22:27:27.538Z,7.43
2018-12-21T22:29:54.618Z,8.50
2018-12-21T22:32:21.694Z,9.17
2018-12-21T22:34:48.767Z,8.57
2018-12-21T22:37:15.842Z,8.37
2018-12-21T22:39:42.911Z,7.53
2018-12-21T22:42:10.052Z,7.60
2018-12-21T22:44:37.124Z,7.80
2018-12-21T22:47:04.303Z,8.60
2018-12-21T22:49:31.379Z,8.70
2018-12-21T22:51:58.622Z,7.93
2018-12-21T22:54:25.720Z,7.97
2018-12-21T22:56:52.907Z,8.40
2018-12-21T22:59:20.086Z,8.23
2018-12-21T23:01:47.307Z,8.43
2018-12-21T23:04:14.386Z,7.90
2018-12-21T23:06:41.630Z,8.10
2018-12-21T23:09:08.703Z,8.20
2018-12-21T23:11:35.903Z,8.20
2018-12-21T23:14:03.246Z,8.00
2018-12-21T23:16:30.338Z,7.73
2018-12-21T23:18:57.522Z,8.20
2018-12-21T23:21:24.624Z,8.53
2018-12-21T23:23:51.951Z,8.07
2018-12-21T23:26:19.039Z,7.03
2018-12-21T23:28:46.118Z,7.70
2018-12-21T23:31:13.303Z,8.60
2018-12-21T23:33:40.383Z,7.40
2018-12-21T23:36:07.456Z,8.80
2018-12-21T23:38:34.534Z,8.10
2018-12-21T23:41:01.598Z,9.27
2018-12-21T23:43:28.790Z,8.20
2018-12-21T23:45:55.877Z,7.60
2018-12-21T23:48:22.958Z,8.27
2018-12-21T23:50:50.078Z,8.03
2018-12-21T23:53:17.182Z,8.70
2018-12-21T23:55:44.351Z,8.90
2018-12-21T23:58:13.849Z,7.87
